ORLYDB

World´s safest download option! Anonymous Downloads & Identity Protection!
2014-07-22 10:51:46 PS3 Shallie_no_Atelier_Tasogare_no_Umi_no_Renkinjutsushi_JPN_PS3-HR DL 6290.0MB | 69F
2014-07-22 10:51:45 PS3 Saikyou_Shougi_Gekisashi_13_JPN_PS3-HR DL 455.0MB | 13F
2014-07-20 05:52:40 PS3 Abyss.Odyssey.PSN.PS3-PSFR33 DL
2014-07-17 15:09:34 PS3 Bloodbath.PS3-DUPLEX DL 650.0MB | 13F
2014-07-17 15:03:18 PS3 Kick-Ass.2.PS3-DUPLEX DL 750.0MB | 15F
2014-07-16 21:35:05 PS3 Twisted.Lands.Shadow.Town.PSN.PS3-DUPLEX DL 550.0MB | 11F
2014-07-15 11:30:15 PS3 Dead_Space_EUR_MULTi2_PS3-Googlecus DL 6547.1MB | 72F
2014-07-13 05:07:23 PS3 Thief_USA_PS3-CLANDESTiNE DL 6135.0MB | 65F
2014-07-13 04:20:49 PS3 Atelier_Escha_and_Logy_Alchemists_of_the_Dusk_Sky_USA_PS3-CLANDESTiNE DL 5899.0MB | 62F
2014-07-10 02:33:56 PS3 Lightning_Returns_Final_Fantasy_XIII_USA_PS3-CLANDESTiNE DL 9738.0MB | 69F
2014-07-10 02:26:28 PS3 The_Lego_Movie_Videogame_USA_PS3-CLANDESTiNE DL 5381.9MB | 57F
2014-07-04 11:04:31 PS3 F1_2013_Complete_Edition_JPN_PS3-HR DL 6565.0MB | 72F
2014-07-02 14:16:54 PS3 Ratchet_and_Clank_Ginga_Saikyou_Tri_Star_Pack_JPN_PS3-HR DL 15118.0MB | 83F
2014-07-02 10:38:45 PS3 Kamen_Rider_Battride_War_II_Premium_TV_and_Movie_Sound_Edition_JPN_PS3-HR DL 2706.0MB | 60F
2014-07-01 10:20:34 PS3 Watch_Dogs_JPN_PS3-HR DL 9969.0MB | 73F
2014-06-30 11:04:40 PS3 Cross_Channel_For_All_People_JPN_PS3-HR DL 2840.0MB | 62F
2014-06-30 09:46:55 PS3 Date_A_Live_Arusu_Install_JPN_PS3-HR DL 3298.0MB | 72F
2014-06-28 15:50:46 PS3 Transformers_Rise_of_the_Dark_Spark_EUR_MULTi5_PS3-ABSTRAKT DL 7874.0MB | 85F
2014-06-28 08:58:35 PS3 CV_Casting_Voice_JPN_PS3-HR DL 2418.0MB | 51F
2014-06-27 21:50:50 PS3 Tomb.Raider.PS3-DUPLEX DL
2014-06-26 11:11:43 PS3 GRID_Autosport_EUR_MULTi7_PS3-ABSTRAKT DL 7210.0MB | 78F
2014-06-25 21:31:39 PS3 XBlaze.Code.Embryo.PS3-DUPLEX DL 3174.4MB | 31F
2014-06-25 19:12:38 PS3 Atelier_Rorona_Plus_The_Alchemist_of_Arland_PS3-ABSTRAKT DL 4400.0MB | 47F
2014-06-25 10:47:51 PS3 One.Piece.Unlimited.World.Red.PS3-DUPLEX DL 4096.0MB | 81F
2014-06-24 17:01:15 PS3 Sniper.Elite.III.PS3-DUPLEX DL 4403.2MB | 86F
2014-06-24 15:45:18 PS3 Dynasty.Warriors.Gundam.Reborn.PS3-DUPLEX DL 10035.2MB | 65F
2014-06-21 02:49:28 PS3 GRID.Autosport.PS3-iMARS DL 7574.0MB | 80F
2014-06-20 14:59:00 PS3 Saints.Row.IV.Game.of.the.Century.Edition.PS3-DUPLEX DL 8499.2MB | 83F
2014-06-20 06:14:02 PS3 Transformers.Rise.of.The.Dark.Spark.PS3-DUPLEX DL 7523.0MB | 79F
2014-06-19 16:01:02 PS3 One_Piece_Unlimited_World_R_JPN_PROPER_PS3-HR DL
2014-06-19 11:09:51 PS3 Thief_JPN_PS3-HR DL
2014-06-18 20:02:37 PS3 Tales.From.Space.Mutant.Blobs.Attack.PSN.PS3-PSFR33 DL 244.0MB | 6F
2014-06-18 12:17:31 PS3 Le.Tour.de.France.2014.PS3-DUPLEX DL 5529.6MB | 54F
2014-06-16 12:47:12 PS3 Wolfenstein_The_New_Order_JPN_PS3-HR DL
2014-06-14 10:29:26 PS3 The_Load_of_the_Rings_Aragorns_Quest_EUR_PS3-TMD DL 7531.0MB | 81F
2014-06-13 21:14:24 PS3 MotoGP.14.PS3-DUPLEX DL 9728.0MB | 63F
2014-06-12 12:49:44 PS3 Enemy_Front_GERMAN_PS3-ABSTRAKT DL
2014-06-06 22:15:38 PS3 How.to.Train.Your.Dragon.2.PS3-iMARS DL 700.0MB | 7F
2014-06-06 20:09:17 PS3 Enemy_Front_PS3-PROTOCOL DL 5017.6MB | 49F
2014-06-06 09:18:36 PS3 Rain_JPN_PS3-HR DL
2014-06-01 07:14:46 PS3 Watch_Dogs_READNFO_EUR_PS3-ANTiDOTE DL 7727.0MB | 84F
2014-05-31 16:23:14 PS3 Gekijouban_Macross_F_Digital_Archives_JPN_PS3-HR DL
2014-05-29 10:44:11 PS3 Murdered.Soul.Suspect.PS3-DUPLEX DL 10752.0MB | 70F
2014-05-28 15:17:23 PS3 Mobile_Suit_Gundam_Side_Storise_JPN_PS3-Caravan DL 11178.8MB | 79F
2014-05-26 19:43:37 PS3 Don.Bradman.Cricket.14.PS3-PROTON DL 2457.6MB | 47F
2014-05-23 14:25:28 PS3 World_Soccer_Winning_Eleven_2014_Aoki_Samurai_no_Chousen_JPN_PS3-Caravan DL 12404.0MB | 63F
2014-05-22 12:42:52 PS3 Watch.Dogs.DLC.Unlocker.PS3-DUPLEX DL 26.0MB | 1F
2014-05-22 12:31:27 PS3 Watch.Dogs.PS3-DUPLEX DL 15360.0MB | 75F
2014-05-21 23:32:42 PS3 F1.2013.Complete.Edition.PS3-DUPLEX DL 8148.0MB | 86F
2014-05-20 22:20:20 PS3 Mugen_Souls_Z_PS3-ACCiDENT DL 8704.0MB | 85F
 ░                                                                      ░
 ▒                                                                      ▒
 ▓     Server Time:                               info@orlydb.com       ▓
 █░    2014-07-23 11:18:17                        Hide/Show header     ░█
 █▄                                                                    ▄█
 ▀█▄                            ░▄▄▄▄▄▄▄▄░                            ▄█▀
  ▀█▄▒                 ░▄▄█████████▀▀▀▀█████████▄▄░                 ▒▄█▀
   ▀██▄░░     ░▄▄██████████▀▀░              ░▀▀██████████▄▄░     ░░▄██▀
    ░▀███████████▀▀                                    ▀▀███████████▀░
        ▀▀▀░    █   ▄▄▄▄  ▄▄▄▄  ▄▄  ▄▄   ▄ ▄▄▄▄  ▄▄▄▄    █    ░▀▀▀
                ▓   ██  █ ██ ██ ██   █▄ ▄█ ██  █ ██ ██   ▓
                ▒   ▓█  █ ▓█▄██ ▓█    ▓██  ▓█  █ ▓█▄█▀   ▒
                ▓   ▓████ ▓█ █▄ ▓█▄▄▄ ▓██  ▓███▀ ▓█▄██   ▓
                █▄▄▄▄▄▄▄▄▄▄▄▄▄▄▄▄▄▄▄▄▄▄▄▄▄▄▄▄▄▄▄▄▄▄▄▄▄▄▄▄█